Time;durP1;ratioP1;P1;durP2;ratioP2;P2;SDS_P1;SDS_P2;PMS_P1;PMS_P2;Temp;Humidity;BMP_temperature;BMP_pressure;BME280_temperature;BME280_humidity;BME280_pressure;Samples;Min_cycle;Max_cycle;Signal;HPM_P1;HPM_P2
2022/08/01 00:00:05;;;;;;;;;2.75;2.50;;;;;19.75;75.77;101644.22;4989500;28;8967;-66
2022/08/01 00:02:37;;;;;;;;;3.50;3.50;;;;;19.75;75.98;101636.00;5002248;28;8815;-66
2022/08/01 00:05:06;;;;;;;;;4.50;3.50;;;;;19.74;76.07;101642.56;4995649;28;9533;-66
2022/08/01 00:07:36;;;;;;;;;4.25;4.25;;;;;19.73;76.05;101646.38;4979809;28;8871;-65
2022/08/01 00:10:05;;;;;;;;;5.50;3.75;;;;;19.71;76.15;101637.56;4987417;28;8827;-65
2022/08/01 00:12:31;;;;;;;;;3.75;3.75;;;;;19.71;76.20;101639.47;4980198;28;8841;-64
2022/08/01 00:14:58;;;;;;;;;5.50;5.25;;;;;19.70;76.39;101644.09;4978863;28;8990;-66
2022/08/01 00:17:24;;;;;;;;;7.00;6.00;;;;;19.68;76.50;101643.47;5002649;28;8817;-65
2022/08/01 00:19:51;;;;;;;;;3.00;3.00;;;;;19.69;76.48;101650.63;4983914;28;8845;-65
2022/08/01 00:22:17;;;;;;;;;3.25;2.00;;;;;19.67;76.71;101657.38;4975010;28;9531;-64
2022/08/01 00:24:44;;;;;;;;;3.25;3.00;;;;;19.67;76.56;101658.22;4976428;28;8849;-64
2022/08/01 00:27:10;;;;;;;;;3.25;3.00;;;;;19.68;76.77;101653.59;4981236;28;8937;-64
2022/08/01 00:29:37;;;;;;;;;7.00;5.50;;;;;19.67;76.76;101650.03;4995753;28;8813;-66
2022/08/01 00:32:24;;;;;;;;;2.00;2.00;;;;;19.66;76.71;101653.00;4974362;28;8935;-65
2022/08/01 00:34:50;;;;;;;;;4.25;4.25;;;;;19.66;76.91;101642.91;4983116;28;8831;-65
2022/08/01 00:37:17;;;;;;;;;3.00;3.00;;;;;19.67;76.79;101643.72;4993196;28;8958;-67
2022/08/01 00:39:43;;;;;;;;;3.75;3.25;;;;;19.67;76.94;101646.47;4986182;28;8853;-66
2022/08/01 00:42:11;;;;;;;;;2.50;2.50;;;;;19.67;76.78;101646.47;4989458;28;8851;-65
2022/08/01 00:44:39;;;;;;;;;2.00;2.00;;;;;19.67;77.10;101658.22;4991541;28;8829;-65
2022/08/01 00:47:07;;;;;;;;;3.50;3.50;;;;;19.66;76.72;101651.09;4976204;28;9551;-64
2022/08/01 00:49:34;;;;;;;;;3.00;3.00;;;;;19.66;76.65;101658.47;4982615;28;8986;-69
2022/08/01 00:52:04;;;;;;;;;3.00;3.00;;;;;19.57;76.68;101652.47;4995859;28;8823;-65
2022/08/01 00:54:31;;;;;;;;;1.00;1.00;;;;;19.62;76.89;101660.81;4981637;28;8847;-65
2022/08/01 00:56:58;;;;;;;;;2.00;2.00;;;;;19.60;76.98;101662.91;5002534;28;8946;-65
2022/08/01 00:59:25;;;;;;;;;2.00;2.00;;;;;19.60;76.63;101653.91;5000952;28;8837;-66
2022/08/01 01:01:52;;;;;;;;;2.00;2.00;;;;;19.59;76.57;101652.22;4976640;28;8837;-66
2022/08/01 01:04:19;;;;;;;;;3.75;3.00;;;;;19.59;76.54;101663.16;4984022;28;8908;-66
2022/08/01 01:07:16;;;;;;;;;3.00;1.75;;;;;19.59;76.58;101660.44;4992684;28;8831;-66
2022/08/01 01:09:52;;;;;;;;;2.00;2.00;;;;;19.58;76.46;101659.59;4989496;28;8825;-66
2022/08/01 01:12:29;;;;;;;;;2.00;2.00;;;;;19.57;76.50;101665.28;5003006;28;8828;-66
2022/08/01 01:15:39;;;;;;;;;2.00;2.00;;;;;19.59;76.49;101660.44;4980988;28;8823;-66
2022/08/01 01:18:30;;;;;;;;;1.75;1.75;;;;;19.57;76.58;101654.34;5002577;28;8826;-66
2022/08/01 01:21:12;;;;;;;;;2.00;2.00;;;;;19.58;76.61;101656.03;4977887;28;8855;-66
2022/08/01 01:24:06;;;;;;;;;1.00;1.00;;;;;19.56;76.34;101656.25;4976891;28;8821;-66
2022/08/01 01:26:43;;;;;;;;;1.75;1.25;;;;;19.55;76.78;101653.78;4999493;28;8837;-66
2022/08/01 01:29:25;;;;;;;;;2.25;1.75;;;;;19.54;76.61;101650.22;4977505;28;9005;-66
2022/08/01 01:31:57;;;;;;;;;1.75;1.75;;;;;19.54;76.68;101658.41;4975901;28;8813;-66
2022/08/01 01:34:26;;;;;;;;;2.75;2.00;;;;;19.50;76.60;101646.28;4984989;28;8901;-66
2022/08/01 01:36:56;;;;;;;;;1.00;1.00;;;;;19.52;76.39;101655.06;4983573;28;8821;-65
2022/08/01 01:39:25;;;;;;;;;1.50;1.00;;;;;19.47;76.50;101652.19;4996560;28;8874;-65
2022/08/01 01:41:54;;;;;;;;;3.25;2.75;;;;;19.46;76.57;101664.19;5007673;28;8833;-65
2022/08/01 01:44:21;;;;;;;;;2.50;2.50;;;;;19.44;76.51;101661.69;4994146;28;9672;-66
2022/08/01 01:46:50;;;;;;;;;2.00;2.00;;;;;19.45;76.27;101657.09;4985257;28;8836;-65
2022/08/01 01:49:22;;;;;;;;;1.25;1.25;;;;;19.46;76.18;101667.75;4996179;28;8953;-65
2022/08/01 01:51:51;;;;;;;;;3.75;2.50;;;;;19.44;76.14;101658.13;5003962;28;8826;-65
2022/08/01 01:54:32;;;;;;;;;1.75;1.75;;;;;19.43;76.03;101657.28;4983441;28;8833;-66
2022/08/01 01:57:01;;;;;;;;;2.00;2.00;;;;;19.45;76.15;101657.09;4979502;28;8834;-66
2022/08/01 01:59:31;;;;;;;;;2.25;2.00;;;;;19.45;75.78;101665.28;4989033;28;9512;-66
2022/08/01 02:02:01;;;;;;;;;3.50;3.50;;;;;19.44;76.03;101664.41;4986622;28;9524;-66
2022/08/01 02:04:37;;;;;;;;;3.25;3.25;;;;;19.46;75.84;101656.84;4996459;28;8867;-66
2022/08/01 02:07:06;;;;;;;;;3.50;2.75;;;;;19.46;76.06;101659.56;4990457;28;8823;-66
2022/08/01 02:09:35;;;;;;;;;3.75;3.75;;;;;19.46;75.88;101664.19;4979382;28;8875;-66
2022/08/01 02:12:02;;;;;;;;;2.25;2.25;;;;;19.44;75.75;101667.16;4985167;28;8837;-65
2022/08/01 02:14:35;;;;;;;;;3.00;3.00;;;;;19.46;75.82;101666.94;5003390;28;8957;-65
2022/08/01 02:17:03;;;;;;;;;4.50;3.00;;;;;19.44;75.88;101678.06;5000650;28;8969;-66
2022/08/01 02:19:30;;;;;;;;;4.00;4.00;;;;;19.44;75.76;101675.34;4988533;28;9544;-66
2022/08/01 02:22:20;;;;;;;;;2.00;2.00;;;;;19.43;75.64;101672.84;4982178;28;8933;-64
2022/08/01 02:24:55;;;;;;;;;7.50;3.00;;;;;19.44;75.61;101677.25;4993183;28;8953;-66
2022/08/01 02:27:26;;;;;;;;;1.50;1.50;;;;;19.43;75.59;101676.41;4981642;28;8848;-67
2022/08/01 02:30:00;;;;;;;;;3.00;3.00;;;;;19.44;75.74;101678.06;4980128;28;8828;-65
2022/08/01 02:32:39;;;;;;;;;3.25;3.25;;;;;19.44;75.76;101678.06;4993939;28;8816;-65
2022/08/01 02:35:11;;;;;;;;;2.00;2.00;;;;;19.45;75.57;101681.66;4983565;28;8825;-64
2022/08/01 02:37:41;;;;;;;;;2.75;2.75;;;;;19.45;75.80;101679.75;4992832;28;8839;-65
2022/08/01 02:40:14;;;;;;;;;2.00;2.00;;;;;19.46;75.69;101677.84;4988730;28;8835;-65
2022/08/01 02:42:45;;;;;;;;;2.50;2.50;;;;;19.47;75.74;101674.06;4993357;28;8819;-65
2022/08/01 02:45:12;;;;;;;;;2.00;2.00;;;;;19.48;75.64;101681.16;4993962;28;8826;-66
2022/08/01 02:47:41;;;;;;;;;3.00;3.00;;;;;19.46;75.69;101678.69;5007878;28;8961;-66
2022/08/01 02:50:12;;;;;;;;;4.00;4.00;;;;;19.41;75.78;101681.28;4998613;28;8882;-65
2022/08/01 02:52:41;;;;;;;;;3.00;3.00;;;;;19.35;75.46;101684.09;4977225;28;8825;-65
2022/08/01 02:55:10;;;;;;;;;3.00;3.00;;;;;19.28;75.87;101667.81;4984320;28;8831;-65
2022/08/01 02:57:37;;;;;;;;;2.00;2.00;;;;;19.25;76.11;101674.59;4985112;28;8819;-66
2022/08/01 03:00:18;;;;;;;;;2.50;2.00;;;;;19.23;76.36;101671.25;4993281;28;8844;-64
2022/08/01 03:02:48;;;;;;;;;1.50;1.00;;;;;19.20;76.57;101676.31;4996574;28;8843;-64
2022/08/01 03:05:16;;;;;;;;;0.75;0.75;;;;;19.18;76.67;101676.56;4992309;28;9844;-65
2022/08/01 03:07:44;;;;;;;;;1.25;1.25;;;;;19.17;76.79;101676.81;4992671;28;8873;-64
2022/08/01 03:10:15;;;;;;;;;0.00;0.00;;;;;19.16;76.92;101681.44;4993065;28;8852;-65
2022/08/01 03:12:44;;;;;;;;;1.00;1.00;;;;;19.17;77.22;101680.38;5002390;28;8917;-65
2022/08/01 03:15:15;;;;;;;;;1.50;1.50;;;;;19.16;77.07;101678.72;4998097;28;8831;-65
2022/08/01 03:17:45;;;;;;;;;2.00;2.00;;;;;19.17;77.05;101683.09;4991772;28;8850;-65
2022/08/01 03:20:14;;;;;;;;;0.25;0.25;;;;;19.16;77.10;101686.03;4982600;28;8984;-66
2022/08/01 03:22:43;;;;;;;;;0.00;0.00;;;;;19.16;77.07;101686.91;4974114;28;8947;-66
2022/08/01 03:25:12;;;;;;;;;1.00;1.00;;;;;19.14;77.12;101686.28;4967214;28;8980;-65
2022/08/01 03:27:41;;;;;;;;;1.25;0.75;;;;;19.14;77.08;101690.91;4997163;28;8901;-66
2022/08/01 03:30:10;;;;;;;;;2.00;2.00;;;;;19.11;77.23;101692.19;4987096;28;8822;-66
2022/08/01 03:32:36;;;;;;;;;5.00;5.00;;;;;19.08;77.02;101683.63;4993209;28;8851;-65
2022/08/01 03:35:04;;;;;;;;;4.00;4.00;;;;;19.09;77.27;101691.59;4995815;28;8809;-65
2022/08/01 03:37:48;;;;;;;;;6.00;6.00;;;;;19.02;77.10;101688.13;5008553;28;8829;-65
2022/08/01 03:40:43;;;;;;;;;5.00;3.00;;;;;18.97;77.49;101698.91;5005580;28;8840;-65
2022/08/01 03:43:20;;;;;;;;;2.50;2.00;;;;;18.97;77.85;101698.91;4990353;28;8837;-65
2022/08/01 03:45:51;;;;;;;;;3.00;3.00;;;;;18.98;77.74;101700.56;4961090;28;8853;-66
2022/08/01 03:48:22;;;;;;;;;1.50;1.25;;;;;18.95;77.71;101701.84;4977375;28;8851;-66
2022/08/01 03:50:52;;;;;;;;;1.00;1.00;;;;;18.92;77.37;101702.31;4991296;28;8819;-66
2022/08/01 03:53:24;;;;;;;;;0.50;0.50;;;;;18.90;77.61;101703.59;4994675;28;9538;-66
2022/08/01 03:55:53;;;;;;;;;1.00;1.00;;;;;18.89;77.65;101702.75;5004836;28;8843;-66
2022/08/01 03:58:21;;;;;;;;;0.00;0.00;;;;;18.88;77.60;101700.25;4983488;28;8901;-66
2022/08/01 04:00:48;;;;;;;;;0.50;0.50;;;;;18.88;77.58;101702.97;4991606;28;8945;-65
2022/08/01 04:03:15;;;;;;;;;1.00;1.00;;;;;18.87;77.67;101704.03;4991774;28;8825;-65
2022/08/01 04:05:42;;;;;;;;;0.75;0.75;;;;;18.84;77.46;101705.34;4990272;28;8847;-66
2022/08/01 04:08:08;;;;;;;;;1.00;1.00;;;;;18.83;77.49;101705.56;4992799;28;8849;-66
2022/08/01 04:10:36;;;;;;;;;0.25;0.25;;;;;18.83;77.56;101713.75;4988124;28;8823;-66
2022/08/01 04:13:03;;;;;;;;;1.00;1.00;;;;;18.83;77.70;101714.56;5004130;28;9569;-65
2022/08/01 04:15:30;;;;;;;;;1.00;0.00;;;;;18.84;77.67;101710.81;4996256;28;8819;-65
2022/08/01 04:17:56;;;;;;;;;1.00;1.00;;;;;18.87;77.80;101712.22;4976543;28;8927;-66
2022/08/01 04:20:23;;;;;;;;;0.75;0.75;;;;;18.89;77.80;101710.13;4989137;28;8928;-65
2022/08/01 04:22:50;;;;;;;;;2.50;2.50;;;;;18.90;77.44;101706.31;4994241;28;8814;-66
2022/08/01 04:25:24;;;;;;;;;1.00;1.00;;;;;18.89;77.62;101701.94;4993902;28;8905;-66
2022/08/01 04:27:52;;;;;;;;;1.75;1.75;;;;;18.89;77.80;101702.75;4995678;28;8835;-64
2022/08/01 04:30:29;;;;;;;;;0.75;0.75;;;;;18.90;78.00;101703.59;4966907;28;8915;-64
2022/08/01 04:32:58;;;;;;;;;1.00;1.00;;;;;18.92;78.05;101706.91;4989368;28;8937;-66
2022/08/01 04:35:27;;;;;;;;;1.75;1.75;;;;;18.90;77.79;101706.31;4985635;28;8825;-65
2022/08/01 04:38:19;;;;;;;;;3.00;3.00;;;;;18.87;77.69;101706.78;5004764;28;8827;-66
2022/08/01 04:40:46;;;;;;;;;3.00;2.50;;;;;18.86;77.68;101711.41;4980758;28;8955;-66
2022/08/01 04:43:12;;;;;;;;;2.00;1.50;;;;;18.87;77.82;101717.69;4975969;28;9575;-66
2022/08/01 04:45:43;;;;;;;;;2.75;2.00;;;;;18.89;77.94;101729.22;4987933;28;8810;-66
2022/08/01 04:48:11;;;;;;;;;2.75;2.75;;;;;18.90;77.96;101731.72;4995276;28;8823;-65
2022/08/01 04:50:37;;;;;;;;;2.00;2.00;;;;;18.90;77.77;101731.72;4989126;28;8815;-66
2022/08/01 04:53:04;;;;;;;;;0.00;0.00;;;;;18.90;77.75;101737.16;5005443;28;8855;-66
2022/08/01 04:55:31;;;;;;;;;1.75;1.75;;;;;18.90;77.84;101739.91;4984263;28;8841;-66
2022/08/01 04:57:57;;;;;;;;;3.00;3.00;;;;;18.89;77.85;101737.41;4976716;28;8822;-65
2022/08/01 05:00:25;;;;;;;;;3.50;3.50;;;;;18.88;77.93;101746.63;4989858;28;8819;-65
2022/08/01 05:02:51;;;;;;;;;6.50;6.50;;;;;18.84;77.91;101746.28;4982100;28;8840;-65
2022/08/01 05:05:17;;;;;;;;;5.75;5.75;;;;;18.76;78.05;101739.22;4994051;28;8823;-65
2022/08/01 05:07:44;;;;;;;;;5.50;5.50;;;;;18.66;78.21;101743.50;4998091;28;9532;-66
2022/08/01 05:10:11;;;;;;;;;4.50;4.50;;;;;18.61;78.23;101741.44;4995343;28;8947;-66
2022/08/01 05:12:38;;;;;;;;;4.25;3.50;;;;;18.60;78.65;101744.41;4995831;28;8835;-66
2022/08/01 05:15:06;;;;;;;;;5.25;3.25;;;;;18.65;78.80;101748.13;4984732;28;8940;-66
2022/08/01 05:17:41;;;;;;;;;2.50;2.25;;;;;18.66;78.74;101738.88;4976721;28;8825;-66
2022/08/01 05:20:09;;;;;;;;;6.75;5.00;;;;;18.68;78.51;101738.66;4989095;28;8832;-66
2022/08/01 05:22:36;;;;;;;;;3.50;2.50;;;;;18.65;78.58;101748.13;5001125;28;8979;-66
2022/08/01 05:25:04;;;;;;;;;3.00;3.00;;;;;18.66;78.58;101746.22;4985605;28;8835;-66
2022/08/01 05:27:32;;;;;;;;;2.50;2.50;;;;;18.69;78.50;101741.16;4990150;28;8846;-65
2022/08/01 05:29:59;;;;;;;;;3.75;3.75;;;;;18.73;78.30;101750.56;4986414;28;8840;-65
2022/08/01 05:32:25;;;;;;;;;3.25;2.00;;;;;18.73;78.03;101750.56;4977446;28;8861;-66
2022/08/01 05:34:52;;;;;;;;;4.00;3.25;;;;;18.73;78.14;101750.56;4981243;28;8866;-65
2022/08/01 05:37:18;;;;;;;;;4.00;3.50;;;;;18.71;77.88;101760.88;4998494;28;8976;-65
2022/08/01 05:39:45;;;;;;;;;5.00;5.00;;;;;18.65;77.80;101761.75;4988201;28;9018;-66
2022/08/01 05:42:11;;;;;;;;;3.75;3.75;;;;;18.64;78.02;101759.25;4973986;28;8888;-66
2022/08/01 05:44:38;;;;;;;;;3.00;2.00;;;;;18.65;78.11;101761.75;4979412;28;8961;-66
2022/08/01 05:47:04;;;;;;;;;3.00;3.00;;;;;18.66;77.60;101765.31;4994005;28;8815;-66
2022/08/01 05:49:31;;;;;;;;;4.75;3.00;;;;;18.60;77.68;101768.94;4993518;28;8827;-67
2022/08/01 05:51:57;;;;;;;;;2.25;2.25;;;;;18.58;77.95;101769.16;4996233;28;8831;-64
2022/08/01 05:54:24;;;;;;;;;2.25;1.50;;;;;18.59;77.56;101776.28;4999594;28;8833;-65
2022/08/01 05:56:51;;;;;;;;;3.75;2.75;;;;;18.57;77.58;101780.31;4974756;28;8825;-64
2022/08/01 05:59:17;;;;;;;;;4.50;3.50;;;;;18.58;77.73;101777.34;4982209;28;8839;-66
2022/08/01 06:01:44;;;;;;;;;3.25;3.25;;;;;18.53;77.76;101782.63;4982499;28;9549;-65
2022/08/01 06:04:10;;;;;;;;;3.00;3.00;;;;;18.49;77.49;101793.16;5000065;28;8859;-66
2022/08/01 06:06:37;;;;;;;;;3.25;3.25;;;;;18.41;77.67;101787.97;4993284;28;8831;-65
2022/08/01 06:09:03;;;;;;;;;3.00;3.00;;;;;18.40;77.72;101790.94;4991827;28;8823;-65
2022/08/01 06:11:29;;;;;;;;;5.75;4.00;;;;;18.38;77.44;101787.59;5001976;28;8815;-66
2022/08/01 06:13:56;;;;;;;;;3.00;3.00;;;;;18.40;77.60;101790.94;5008076;28;8866;-64
2022/08/01 06:16:23;;;;;;;;;2.00;2.00;;;;;18.40;77.52;101790.94;4975957;28;8949;-65
2022/08/01 06:18:49;;;;;;;;;4.25;4.00;;;;;18.38;77.27;101793.03;4993846;28;8835;-66
2022/08/01 06:21:21;;;;;;;;;3.00;2.00;;;;;18.37;76.93;101796.84;4974951;28;8841;-67
2022/08/01 06:23:48;;;;;;;;;3.00;3.00;;;;;18.29;76.93;101789.75;4981086;28;8835;-65
2022/08/01 06:26:17;;;;;;;;;2.75;1.75;;;;;18.26;76.89;101791.03;4993744;28;8961;-65
2022/08/01 06:28:44;;;;;;;;;3.00;3.00;;;;;18.29;76.73;101793.31;4982900;28;8839;-67
2022/08/01 06:31:12;;;;;;;;;2.00;2.00;;;;;18.31;76.49;101793.13;4984917;28;8919;-65
2022/08/01 06:33:39;;;;;;;;;2.00;2.00;;;;;18.28;76.45;101797.13;4992239;28;8841;-65
2022/08/01 06:36:05;;;;;;;;;1.50;1.50;;;;;18.31;76.13;101801.28;4975264;28;8860;-66
2022/08/01 06:38:32;;;;;;;;;2.00;2.00;;;;;18.31;75.66;101811.34;4974490;28;9520;-65
2022/08/01 06:40:58;;;;;;;;;3.25;1.00;;;;;18.34;75.72;101808.19;4991128;28;8921;-65
2022/08/01 06:43:24;;;;;;;;;1.00;1.00;;;;;18.42;75.54;101805.16;4974765;28;8932;-65
2022/08/01 06:45:51;;;;;;;;;3.00;2.25;;;;;18.40;75.04;101808.13;4979396;28;8848;-65
2022/08/01 06:48:17;;;;;;;;;7.25;3.25;;;;;18.38;74.87;101810.22;4973983;28;8817;-65
2022/08/01 06:50:44;;;;;;;;;2.75;2.75;;;;;18.38;74.70;101809.41;4988499;28;8811;-66
2022/08/01 06:53:10;;;;;;;;;2.25;2.00;;;;;18.40;74.64;101826.38;4982543;28;9622;-66
2022/08/01 06:55:37;;;;;;;;;2.00;2.00;;;;;18.43;74.79;101828.63;4986657;28;8973;-64
2022/08/01 06:58:03;;;;;;;;;2.50;1.00;;;;;18.48;74.80;101826.94;4987368;28;9584;-66
2022/08/01 07:00:30;;;;;;;;;2.75;2.75;;;;;18.52;74.43;101832.78;5000781;28;8941;-63
2022/08/01 07:02:59;;;;;;;;;4.00;2.00;;;;;18.55;74.43;101826.84;4988169;28;8860;-67
2022/08/01 07:05:26;;;;;;;;;2.00;2.00;;;;;18.59;74.24;101828.09;4980684;28;8999;-63
2022/08/01 07:07:53;;;;;;;;;1.25;1.00;;;;;18.62;73.81;101833.09;4982401;28;8823;-65
2022/08/01 07:10:20;;;;;;;;;2.00;2.00;;;;;18.58;73.56;101834.59;4985512;28;8888;-64
2022/08/01 07:12:46;;;;;;;;;4.00;2.00;;;;;18.57;73.33;101832.09;4981751;28;8845;-65
2022/08/01 07:15:14;;;;;;;;;3.50;2.25;;;;;18.54;73.28;101836.09;4995084;28;8823;-65
2022/08/01 07:17:42;;;;;;;;;2.50;1.00;;;;;18.49;72.71;101833.22;4983862;28;8877;-65
2022/08/01 07:20:11;;;;;;;;;0.50;0.50;;;;;18.51;72.50;101833.81;4982444;28;9719;-64
2022/08/01 07:22:39;;;;;;;;;1.00;1.00;;;;;18.51;72.21;101825.63;4989358;28;8835;-65
2022/08/01 07:25:07;;;;;;;;;1.75;0.75;;;;;18.53;72.10;101832.53;4989320;28;8926;-65
2022/08/01 07:27:36;;;;;;;;;2.50;2.00;;;;;18.56;71.97;101831.28;4991147;28;8953;-64
2022/08/01 07:30:04;;;;;;;;;0.75;0.75;;;;;18.59;71.96;101830.81;4987790;28;8862;-63
2022/08/01 07:32:31;;;;;;;;;1.50;1.50;;;;;18.60;71.91;101832.50;4981739;28;8791;-65
2022/08/01 07:34:57;;;;;;;;;1.00;1.00;;;;;18.63;71.48;101829.31;4998134;28;8840;-65
2022/08/01 07:37:25;;;;;;;;;2.25;1.00;;;;;18.65;71.33;101832.66;5011853;28;8828;-65
2022/08/01 07:40:12;;;;;;;;;1.25;1.00;;;;;18.69;71.27;101836.59;4989124;28;8875;-65
2022/08/01 07:42:38;;;;;;;;;3.75;2.00;;;;;18.72;71.08;101838.09;4990093;28;8949;-66
2022/08/01 07:45:05;;;;;;;;;1.50;1.50;;;;;18.80;70.80;101850.59;4983137;28;8927;-65
2022/08/01 07:47:31;;;;;;;;;1.75;1.75;;;;;18.83;70.46;101850.97;4978709;28;8845;-65
2022/08/01 07:50:03;;;;;;;;;2.25;2.25;;;;;18.85;70.03;101857.06;4982586;28;9757;-66
2022/08/01 07:52:30;;;;;;;;;1.25;1.25;;;;;18.89;70.02;101854.72;4987277;28;8997;-65
2022/08/01 07:54:57;;;;;;;;;1.75;1.75;;;;;18.88;68.77;101853.03;4979967;28;8953;-65
2022/08/01 07:57:24;;;;;;;;;1.50;1.50;;;;;18.90;68.61;101856.38;4990345;28;8827;-64
2022/08/01 07:59:51;;;;;;;;;1.00;1.00;;;;;18.94;68.69;101858.44;4984655;28;8877;-65
2022/08/01 08:02:17;;;;;;;;;2.00;2.00;;;;;18.98;68.34;101865.09;4984234;28;8819;-65
2022/08/01 08:04:44;;;;;;;;;1.00;1.00;;;;;19.04;68.00;101860.66;4994046;28;8848;-65
2022/08/01 08:07:15;;;;;;;;;1.00;1.00;;;;;19.11;67.83;101863.28;4999113;28;8863;-65
2022/08/01 08:09:41;;;;;;;;;1.50;1.50;;;;;19.11;67.36;101866.84;4985688;28;8865;-66
2022/08/01 08:12:09;;;;;;;;;1.50;1.50;;;;;19.13;66.81;101869.38;4973200;28;8841;-64
2022/08/01 08:14:36;;;;;;;;;5.50;1.25;;;;;19.15;66.61;101861.78;4978342;28;8843;-64
2022/08/01 08:17:03;;;;;;;;;0.75;0.50;;;;;19.15;65.98;101870.81;4983519;28;8839;-65
2022/08/01 08:19:33;;;;;;;;;1.00;1.00;;;;;19.15;65.38;101872.69;4991191;28;8907;-66
2022/08/01 08:22:05;;;;;;;;;1.00;1.00;;;;;19.15;65.32;101880.88;4977197;28;8955;-64
2022/08/01 08:24:32;;;;;;;;;0.75;0.75;;;;;19.21;65.33;101878.09;4984941;28;8832;-66
2022/08/01 08:27:00;;;;;;;;;1.00;1.00;;;;;19.22;65.53;101882.50;4987969;28;8941;-66
2022/08/01 08:29:29;;;;;;;;;1.75;1.00;;;;;19.30;65.32;101886.81;4987420;28;8860;-65
2022/08/01 08:31:57;;;;;;;;;2.25;2.00;;;;;19.30;64.55;101883.25;4977289;28;9579;-66
2022/08/01 08:34:25;;;;;;;;;2.00;1.00;;;;;19.35;64.43;101881.50;4977906;28;8825;-66
2022/08/01 08:36:52;;;;;;;;;2.00;2.00;;;;;19.39;64.70;101879.16;4987086;28;8905;-66
2022/08/01 08:39:19;;;;;;;;;2.25;1.75;;;;;19.42;64.38;101882.28;4969042;28;8959;-66
2022/08/01 08:41:47;;;;;;;;;1.50;1.00;;;;;19.41;63.89;101875.16;4976724;28;8837;-66
2022/08/01 08:44:15;;;;;;;;;2.00;2.00;;;;;19.43;64.19;101880.38;4983032;28;8845;-65
2022/08/01 08:46:44;;;;;;;;;2.75;2.00;;;;;19.47;64.36;101881.59;4977377;28;8953;-66
2022/08/01 08:49:15;;;;;;;;;1.75;1.75;;;;;19.48;64.66;101886.81;4992403;28;8986;-66
2022/08/01 08:51:43;;;;;;;;;1.75;1.75;;;;;19.51;65.17;101889.09;4976565;28;8825;-65
2022/08/01 08:54:13;;;;;;;;;3.00;2.50;;;;;19.48;64.86;101886.81;4978890;28;8927;-66
2022/08/01 08:56:41;;;;;;;;;2.50;1.50;;;;;19.54;64.89;101897.91;4995928;28;8892;-65
2022/08/01 08:59:08;;;;;;;;;1.00;0.00;;;;;19.57;64.44;101902.88;4994687;28;8951;-65
2022/08/01 09:01:34;;;;;;;;;2.00;1.00;;;;;19.59;64.40;101901.59;4990295;28;8811;-65
2022/08/01 09:04:04;;;;;;;;;2.00;1.25;;;;;19.61;64.02;101905.00;5004718;28;8833;-65
2022/08/01 09:06:32;;;;;;;;;3.00;3.00;;;;;19.68;64.31;101910.34;5015203;28;8859;-65
2022/08/01 09:08:59;;;;;;;;;1.75;1.75;;;;;19.73;64.31;101905.91;4984245;28;8835;-65
2022/08/01 09:11:26;;;;;;;;;2.25;2.25;;;;;19.72;63.63;101908.84;5013781;28;8868;-65
2022/08/01 09:14:09;;;;;;;;;2.00;2.00;;;;;19.71;63.15;101908.00;5015328;28;8935;-66
2022/08/01 09:16:40;;;;;;;;;3.75;1.50;;;;;19.73;62.29;101910.53;5015341;28;8832;-66
2022/08/01 09:19:17;;;;;;;;;2.75;1.75;;;;;19.69;62.44;101907.41;4999951;28;8857;-67
2022/08/01 09:22:09;;;;;;;;;2.75;2.75;;;;;19.71;61.66;101907.19;4994621;28;8845;-66
2022/08/01 09:24:39;;;;;;;;;2.25;2.25;;;;;19.66;61.24;101901.56;4994464;28;8858;-65
2022/08/01 09:27:19;;;;;;;;;2.25;2.25;;;;;19.66;61.99;101907.88;4995526;28;8812;-66
2022/08/01 09:29:48;;;;;;;;;3.00;2.25;;;;;19.69;62.30;101910.16;4986407;28;8868;-66
2022/08/01 09:32:27;;;;;;;;;1.00;1.00;;;;;19.80;62.33;101913.16;4992921;28;8823;-66
2022/08/01 09:35:23;;;;;;;;;2.00;2.00;;;;;19.80;61.63;101918.63;4995062;28;8929;-66
2022/08/01 09:38:19;;;;;;;;;2.25;1.50;;;;;19.82;61.90;101920.06;4995200;28;8827;-66
2022/08/01 09:40:56;;;;;;;;;0.25;0.25;;;;;19.91;62.00;101929.63;4988950;28;8968;-66
2022/08/01 09:43:26;;;;;;;;;3.00;2.50;;;;;19.88;60.82;101931.97;4982098;28;8819;-66
2022/08/01 09:45:55;;;;;;;;;3.00;3.00;;;;;19.81;60.87;101939.41;4994894;28;8811;-66
2022/08/01 09:48:24;;;;;;;;;2.00;2.00;;;;;19.83;60.80;101937.31;5007287;28;8840;-66
2022/08/01 09:50:54;;;;;;;;;3.00;1.00;;;;;19.83;60.78;101931.84;5015269;28;8902;-66
2022/08/01 09:53:26;;;;;;;;;1.25;1.25;;;;;19.88;60.22;101938.25;5014107;28;8825;-66
2022/08/01 09:56:11;;;;;;;;;2.25;2.25;;;;;19.88;59.93;101943.72;4994943;28;9644;-66
2022/08/01 09:58:58;;;;;;;;;2.00;2.00;;;;;19.91;59.52;101945.19;4994931;28;8839;-67
2022/08/01 10:01:40;;;;;;;;;3.00;3.00;;;;;19.92;59.36;101942.22;4995240;28;9130;-65
2022/08/01 10:04:14;;;;;;;;;1.00;1.00;;;;;19.99;59.33;101944.88;4983447;28;8880;-66
2022/08/01 10:06:52;;;;;;;;;1.25;1.25;;;;;20.08;59.48;101946.22;4995238;28;8918;-66
2022/08/01 10:09:33;;;;;;;;;1.25;1.25;;;;;20.15;59.58;101949.69;4983638;28;8911;-66
2022/08/01 10:12:06;;;;;;;;;2.50;1.25;;;;;20.10;58.62;101946.00;4975594;28;8837;-66
2022/08/01 10:14:36;;;;;;;;;1.00;1.00;;;;;20.07;58.36;101949.19;4975202;28;8833;-65
2022/08/01 10:17:05;;;;;;;;;1.00;1.00;;;;;20.07;58.28;101943.72;4977364;28;8896;-65
2022/08/01 10:19:35;;;;;;;;;2.00;0.75;;;;;20.12;58.60;101941.94;4988118;28;8850;-63
2022/08/01 10:22:07;;;;;;;;;2.00;2.00;;;;;20.16;58.58;101948.63;4994488;28;8843;-65
2022/08/01 10:24:41;;;;;;;;;1.00;1.00;;;;;20.16;56.87;101945.06;4988569;28;8899;-65
2022/08/01 10:27:10;;;;;;;;;1.75;1.75;;;;;20.16;57.59;101942.31;4983085;28;8849;-66
2022/08/01 10:29:45;;;;;;;;;1.50;1.00;;;;;20.19;58.10;101953.63;4974769;28;8869;-65
2022/08/01 10:32:37;;;;;;;;;2.00;2.00;;;;;20.19;56.86;101953.63;4985884;28;8822;-64
2022/08/01 10:35:07;;;;;;;;;2.00;2.00;;;;;20.08;56.78;101946.22;4975330;28;8822;-65
2022/08/01 10:37:41;;;;;;;;;2.00;2.00;;;;;20.03;57.32;101948.81;4987722;28;8823;-65
2022/08/01 10:40:20;;;;;;;;;0.25;0.25;;;;;20.05;58.22;101959.50;4994203;28;8893;-65
2022/08/01 10:42:56;;;;;;;;;1.50;1.50;;;;;20.03;57.49;101953.44;4994233;28;9776;-66
2022/08/01 10:45:25;;;;;;;;;1.00;1.00;;;;;20.10;58.40;101949.56;4991313;28;8826;-64
2022/08/01 10:48:05;;;;;;;;;1.00;1.00;;;;;20.14;58.41;101939.00;4980811;28;8838;-64
2022/08/01 10:50:37;;;;;;;;;1.50;1.50;;;;;20.24;58.50;101944.75;4975234;28;8860;-65
2022/08/01 10:53:15;;;;;;;;;2.00;2.00;;;;;20.29;58.00;101952.25;4953735;28;8967;-66
2022/08/01 10:55:56;;;;;;;;;1.00;1.00;;;;;20.23;56.37;101954.84;4971054;28;8833;-65
2022/08/01 10:58:28;;;;;;;;;2.25;2.00;;;;;20.16;56.92;101948.63;4970388;28;8821;-66
2022/08/01 11:01:14;;;;;;;;;2.25;1.00;;;;;20.36;57.67;101958.47;4971202;28;8847;-65
2022/08/01 11:03:43;;;;;;;;;0.75;0.75;;;;;20.35;56.61;101959.53;4988615;28;8835;-65
2022/08/01 11:06:32;;;;;;;;;1.00;1.00;;;;;20.32;56.05;101955.34;4992935;28;8941;-66
2022/08/01 11:09:11;;;;;;;;;1.50;1.50;;;;;20.16;56.06;101965.03;4990609;28;8807;-66
2022/08/01 11:12:13;;;;;;;;;3.75;2.00;;;;;20.16;57.09;101966.94;4988730;28;8870;-66
2022/08/01 11:14:59;;;;;;;;;1.00;1.00;;;;;20.16;56.13;101973.22;4972126;28;8867;-65
2022/08/01 11:17:41;;;;;;;;;1.00;1.00;;;;;20.19;56.78;101969.22;4973241;28;8833;-65
2022/08/01 11:20:11;;;;;;;;;1.25;1.25;;;;;20.25;56.30;101974.59;4990476;28;9593;-65
2022/08/01 11:23:15;;;;;;;;;0.50;0.00;;;;;20.26;55.96;101972.69;4975375;28;8836;-66
2022/08/01 11:25:45;;;;;;;;;1.00;1.00;;;;;20.29;56.42;101972.22;4971016;28;8837;-66
2022/08/01 11:28:32;;;;;;;;;2.00;1.00;;;;;20.33;57.13;101967.13;4980984;28;8807;-66
2022/08/01 11:31:02;;;;;;;;;1.00;1.00;;;;;20.39;56.48;101975.25;4990288;28;8854;-65
2022/08/01 11:33:42;;;;;;;;;3.25;1.00;;;;;20.37;56.74;101971.06;4990556;28;9478;-65
2022/08/01 11:36:20;;;;;;;;;2.00;2.00;;;;;20.34;55.26;101966.06;4990055;28;8915;-65
2022/08/01 11:39:06;;;;;;;;;3.00;2.25;;;;;20.37;55.55;101971.88;4989771;28;8823;-65
2022/08/01 11:41:40;;;;;;;;;2.75;2.00;;;;;20.38;55.92;101975.47;4966293;28;8953;-65
2022/08/01 11:44:11;;;;;;;;;2.00;2.00;;;;;20.42;56.42;101969.31;4989880;28;8831;-65
2022/08/01 11:47:02;;;;;;;;;0.50;0.50;;;;;20.46;56.10;101977.88;4989296;28;8954;-64
2022/08/01 11:49:54;;;;;;;;;3.00;1.00;;;;;20.51;56.12;101972.59;4988046;28;8945;-65
2022/08/01 11:52:26;;;;;;;;;1.00;1.00;;;;;20.56;55.96;101967.25;4990817;28;8893;-64